createdAt,value
2022-08-01T00:02:29.123Z,99778.41
2022-08-01T00:07:31.887Z,99772.88
2022-08-01T00:12:35.007Z,99770.36
2022-08-01T00:17:38.287Z,99772.75
2022-08-01T00:22:41.026Z,99772.07
2022-08-01T00:27:43.708Z,99771.59
2022-08-01T00:32:46.621Z,99775.98
2022-08-01T00:37:49.375Z,99778.54
2022-08-01T00:42:52.672Z,99777.42
2022-08-01T00:47:55.575Z,99774.54
2022-08-01T00:53:00.137Z,99772.44
2022-08-01T00:58:06.100Z,99769.70
2022-08-01T01:03:09.945Z,99766.98
2022-08-01T01:08:25.540Z,99772.41
2022-08-01T01:13:28.182Z,99771.02
2022-08-01T01:18:36.290Z,99772.70
2022-08-01T01:24:12.720Z,99768.31
2022-08-01T01:29:25.231Z,99765.41
2022-08-01T01:34:29.213Z,99765.77
2022-08-01T01:39:34.999Z,99766.38
2022-08-01T01:44:40.019Z,99763.34
2022-08-01T01:49:45.410Z,99765.53
2022-08-01T01:54:51.181Z,99763.52
2022-08-01T01:59:55.582Z,99764.70
2022-08-01T02:04:59.509Z,99764.14
2022-08-01T02:10:04.330Z,99761.31
2022-08-01T02:15:08.489Z,99759.77
2022-08-01T02:20:12.291Z,99767.81
2022-08-01T02:25:26.984Z,99768.27
2022-08-01T02:30:35.086Z,99769.77
2022-08-01T02:36:29.098Z,99770.70
2022-08-01T02:41:10.618Z,99773.46
2022-08-01T02:46:19.793Z,99778.73
2022-08-01T02:51:25.644Z,99774.60
2022-08-01T02:56:36.003Z,99776.70
2022-08-01T03:01:42.054Z,99774.95
2022-08-01T03:06:48.139Z,99777.23
2022-08-01T03:11:52.295Z,99785.60
2022-08-01T03:16:57.124Z,99780.12
2022-08-01T03:22:04.650Z,99774.20
2022-08-01T03:27:09.104Z,99776.05
2022-08-01T03:32:14.158Z,99778.32
2022-08-01T03:37:26.754Z,99778.38
2022-08-01T03:42:35.355Z,99782.29
2022-08-01T03:47:43.424Z,99784.61
2022-08-01T03:52:48.325Z,99789.48
2022-08-01T03:57:51.919Z,99795.02
2022-08-01T04:02:55.407Z,99800.02
2022-08-01T04:07:58.641Z,99800.41
2022-08-01T04:13:01.543Z,99803.80
2022-08-01T04:18:04.549Z,99801.00
2022-08-01T04:23:09.177Z,99802.66
2022-08-01T04:28:17.417Z,99804.99
2022-08-01T04:33:21.617Z,99804.82
2022-08-01T04:38:30.634Z,99806.04
2022-08-01T04:43:34.120Z,99807.39
2022-08-01T04:48:39.871Z,99810.05
2022-08-01T04:53:44.115Z,99805.58
2022-08-01T04:58:46.957Z,99809.35
2022-08-01T05:03:49.643Z,99815.55
2022-08-01T05:08:52.595Z,99817.00
2022-08-01T05:13:55.333Z,99816.47
2022-08-01T05:18:58.042Z,99823.85
2022-08-01T05:24:00.765Z,99828.17
2022-08-01T05:29:04.432Z,99827.65
2022-08-01T05:34:07.389Z,99832.77
2022-08-01T05:39:18.081Z,99830.17
2022-08-01T05:44:21.101Z,99832.52
2022-08-01T05:49:24.079Z,99836.80
2022-08-01T05:54:26.880Z,99835.36
2022-08-01T05:59:30.615Z,99839.31
2022-08-01T06:04:33.503Z,99837.95
2022-08-01T06:09:36.632Z,99839.34
2022-08-01T06:14:39.667Z,99842.59
2022-08-01T06:19:42.528Z,99839.81
2022-08-01T06:24:45.474Z,99846.27
2022-08-01T06:29:51.330Z,99844.19
2022-08-01T06:34:56.855Z,99849.20
2022-08-01T06:40:08.080Z,99850.70
2022-08-01T06:45:12.605Z,99844.55
2022-08-01T06:50:15.830Z,99841.19
2022-08-01T06:55:18.663Z,99843.21
2022-08-01T07:00:23.744Z,99845.39
2022-08-01T07:05:27.127Z,99854.63
2022-08-01T07:10:29.916Z,99863.27
2022-08-01T07:15:32.605Z,99856.31
2022-08-01T07:20:50.280Z,99857.48
2022-08-01T07:25:58.094Z,99855.17
2022-08-01T07:31:03.713Z,99850.14
2022-08-01T07:36:06.662Z,99845.20
2022-08-01T07:41:12.733Z,99839.63
2022-08-01T07:46:16.318Z,99837.64
2022-08-01T07:51:19.177Z,99830.89
2022-08-01T07:56:26.656Z,99831.70
2022-08-01T08:01:29.793Z,99831.23
2022-08-01T08:06:32.553Z,99829.34
2022-08-01T08:11:35.318Z,99831.17
2022-08-01T08:16:38.755Z,99836.04
2022-08-01T08:21:43.168Z,99833.03
2022-08-01T08:26:46.276Z,99835.55
2022-08-01T08:31:52.369Z,99832.01
2022-08-01T08:36:57.369Z,99833.11
2022-08-01T08:42:03.314Z,99837.67
2022-08-01T08:47:09.377Z,99838.02
2022-08-01T08:52:13.374Z,99841.98
2022-08-01T08:57:16.780Z,99839.13
2022-08-01T09:02:19.546Z,99838.76
2022-08-01T09:07:23.953Z,99843.67
2022-08-01T09:12:27.160Z,99848.21
2022-08-01T09:17:41.070Z,99847.00
2022-08-01T09:22:47.713Z,99844.40
2022-08-01T09:28:03.889Z,99843.38
2022-08-01T09:33:17.817Z,99844.67
2022-08-01T09:38:28.280Z,99851.75
2022-08-01T09:43:32.749Z,99856.58
2022-08-01T09:48:38.057Z,99854.41
2022-08-01T09:53:51.158Z,99856.39
2022-08-01T09:59:00.371Z,99858.59
2022-08-01T10:04:12.380Z,99859.48
2022-08-01T10:09:15.815Z,99858.41
2022-08-01T10:14:20.903Z,99862.20
2022-08-01T10:19:28.986Z,99868.42
2022-08-01T10:24:33.420Z,99856.88
2022-08-01T10:30:05.385Z,99853.23
2022-08-01T10:35:15.807Z,99850.20
2022-08-01T10:40:30.043Z,99849.61
2022-08-01T10:45:35.126Z,99853.24
2022-08-01T10:50:53.553Z,99848.19
2022-08-01T10:56:05.016Z,99839.31
2022-08-01T11:01:20.480Z,99841.61
2022-08-01T11:06:35.761Z,99837.56
2022-08-01T11:12:07.332Z,99829.90
2022-08-01T11:17:37.136Z,99829.52
2022-08-01T11:23:04.851Z,99831.35
2022-08-01T11:28:30.157Z,99826.29
2022-08-01T11:33:40.789Z,99820.05
2022-08-01T11:38:45.427Z,99814.22
2022-08-01T11:44:07.033Z,99817.23
2022-08-01T11:49:38.669Z,99817.61
2022-08-01T11:55:04.457Z,99812.34
2022-08-01T12:00:19.352Z,99811.79
2022-08-01T12:05:25.010Z,99805.49
2022-08-01T12:10:37.126Z,99803.56
2022-08-01T12:15:56.473Z,99808.02
2022-08-01T12:21:05.761Z,99807.17
2022-08-01T12:26:09.057Z,99798.85
2022-08-01T12:31:35.845Z,99802.54
2022-08-01T12:36:39.560Z,99801.29
2022-08-01T12:41:44.950Z,99795.25
2022-08-01T12:46:47.891Z,99795.74
2022-08-01T12:51:57.056Z,99798.77
2022-08-01T12:57:00.433Z,99797.55
2022-08-01T13:02:10.215Z,99804.91
2022-08-01T13:07:12.950Z,99795.57
2022-08-01T13:12:15.745Z,99792.38
2022-08-01T13:17:37.027Z,99789.55
2022-08-01T13:22:40.517Z,99786.86
2022-08-01T13:27:53.705Z,99787.42
2022-08-01T13:33:01.433Z,99792.66
2022-08-01T13:38:04.259Z,99790.23
2022-08-01T13:43:07.142Z,99792.23
2022-08-01T13:48:12.923Z,99795.05
2022-08-01T13:53:21.498Z,99795.08
2022-08-01T13:58:24.370Z,99801.90
2022-08-01T14:03:33.410Z,99798.62
2022-08-01T14:08:36.691Z,99794.91
2022-08-01T14:13:46.560Z,99792.27
2022-08-01T14:18:49.544Z,99795.17
2022-08-01T14:23:52.268Z,99798.14
2022-08-01T14:28:54.983Z,99804.98
2022-08-01T14:33:57.720Z,99803.61
2022-08-01T14:39:01.198Z,99806.35
2022-08-01T14:44:05.225Z,99808.05
2022-08-01T14:49:08.041Z,99810.32
2022-08-01T14:54:10.919Z,99810.85
2022-08-01T14:59:21.450Z,99813.73
2022-08-01T15:04:24.945Z,99809.33
2022-08-01T15:09:27.663Z,99812.23
2022-08-01T15:14:48.954Z,99814.26
2022-08-01T15:19:54.214Z,99815.55
2022-08-01T15:24:58.884Z,99814.29
2022-08-01T15:30:01.794Z,99807.96
2022-08-01T15:35:07.145Z,99812.42
2022-08-01T15:40:11.361Z,99817.24
2022-08-01T15:45:45.376Z,99813.16
2022-08-01T15:50:40.467Z,99817.83
2022-08-01T15:55:44.777Z,99816.52
2022-08-01T16:00:55.574Z,99819.79
2022-08-01T16:05:58.598Z,99821.55
2022-08-01T16:11:01.465Z,99830.13
2022-08-01T16:16:05.090Z,99830.71
2022-08-01T16:21:07.990Z,99827.90
2022-08-01T16:26:27.102Z,99835.14
2022-08-01T16:31:37.494Z,99834.45
2022-08-01T16:36:40.960Z,99838.95
2022-08-01T16:41:43.791Z,99842.64
2022-08-01T16:46:46.544Z,99849.58
2022-08-01T16:51:52.061Z,99849.41
2022-08-01T16:56:56.142Z,99852.35
2022-08-01T17:02:02.563Z,99857.97
2022-08-01T17:07:05.707Z,99862.50
2022-08-01T17:12:08.920Z,99866.24
2022-08-01T17:17:11.907Z,99865.58
2022-08-01T17:22:14.861Z,99866.27
2022-08-01T17:27:18.394Z,99864.23
2022-08-01T17:32:21.377Z,99868.20
2022-08-01T17:37:24.226Z,99874.63
2022-08-01T17:42:30.179Z,99881.48
2022-08-01T17:47:49.834Z,99885.80
2022-08-01T17:52:53.294Z,99891.55
2022-08-01T17:57:56.087Z,99900.71
2022-08-01T18:02:58.831Z,99903.38
2022-08-01T18:08:02.664Z,99905.27
2022-08-01T18:13:06.032Z,99909.95
2022-08-01T18:18:09.674Z,99911.05
2022-08-01T18:23:12.767Z,99921.58
2022-08-01T18:28:21.145Z,99922.18
2022-08-01T18:33:36.075Z,99921.86
2022-08-01T18:38:39.035Z,99930.03
2022-08-01T18:43:48.864Z,99934.69
2022-08-01T18:48:51.644Z,99941.29
2022-08-01T18:53:56.743Z,99950.21
2022-08-01T18:58:59.487Z,99954.59
2022-08-01T19:04:02.464Z,99964.28
2022-08-01T19:09:06.292Z,99972.39
2022-08-01T19:14:09.070Z,99977.89
2022-08-01T19:19:12.095Z,99981.33
2022-08-01T19:24:17.383Z,99982.65
2022-08-01T19:29:35.583Z,99989.11
2022-08-01T19:34:57.310Z,99995.23
2022-08-01T19:40:00.603Z,99994.77
2022-08-01T19:45:05.646Z,99995.98
2022-08-01T19:50:10.220Z,100002.69
2022-08-01T19:55:14.810Z,100006.77
2022-08-01T20:00:23.581Z,100003.84
2022-08-01T20:05:31.568Z,100002.36
2022-08-01T20:10:37.594Z,100004.34
2022-08-01T20:15:43.186Z,100006.61
2022-08-01T20:20:48.061Z,100011.43
2022-08-01T20:25:52.794Z,100014.20
2022-08-01T20:31:05.014Z,100006.55
2022-08-01T20:36:12.336Z,100010.60
2022-08-01T20:41:28.759Z,100014.30
2022-08-01T20:46:31.683Z,100015.95
2022-08-01T20:51:42.037Z,100024.63
2022-08-01T20:57:00.331Z,100022.57
2022-08-01T21:02:28.588Z,100021.87
2022-08-01T21:08:00.075Z,100023.73
2022-08-01T21:13:12.385Z,100025.53
2022-08-01T21:18:33.942Z,100027.80
2022-08-01T21:24:09.305Z,100026.89
2022-08-01T21:29:12.817Z,100027.15
2022-08-01T21:34:17.041Z,100027.59
2022-08-01T21:39:20.891Z,100031.64
2022-08-01T21:44:28.962Z,100039.50
2022-08-01T21:49:32.444Z,100045.02
2022-08-01T21:54:56.959Z,100049.52
2022-08-01T22:00:57.022Z,100052.59
2022-08-01T22:06:02.473Z,100055.33
2022-08-01T22:11:08.362Z,100059.88
2022-08-01T22:16:15.590Z,100064.06
2022-08-01T22:21:19.405Z,100066.57
2022-08-01T22:26:27.254Z,100065.33
2022-08-01T22:31:36.308Z,100068.98
2022-08-01T22:36:40.904Z,100069.55
2022-08-01T22:42:02.175Z,100076.79
2022-08-01T22:47:29.807Z,100088.16
2022-08-01T22:52:42.538Z,100088.48
2022-08-01T22:57:55.386Z,100088.89
2022-08-01T23:03:27.635Z,100090.77
2022-08-01T23:08:33.928Z,100094.10
2022-08-01T23:13:37.583Z,100097.81
2022-08-01T23:18:45.975Z,100095.80
2022-08-01T23:23:49.489Z,100094.86
2022-08-01T23:28:53.076Z,100098.96
2022-08-01T23:33:55.807Z,100101.83
2022-08-01T23:38:58.543Z,100102.61
2022-08-01T23:44:01.294Z,100105.14
2022-08-01T23:49:05.474Z,100104.15
2022-08-01T23:54:08.346Z,100107.86
2022-08-01T23:59:13.136Z,100103.83
